sensor_id;sensor_type;location;lat;lon;timestamp;temperature;humidity
2935;DHT22;2462;51.456;7.248;2022-08-03T00:02:21;22.80;99.90
2935;DHT22;2462;51.456;7.248;2022-08-03T00:04:47;22.70;99.90
2935;DHT22;2462;51.456;7.248;2022-08-03T00:07:13;22.70;99.90
2935;DHT22;2462;51.456;7.248;2022-08-03T00:09:38;22.60;99.90
2935;DHT22;2462;51.456;7.248;2022-08-03T00:12:04;22.60;99.90
2935;DHT22;2462;51.456;7.248;2022-08-03T00:14:30;22.50;99.90
2935;DHT22;2462;51.456;7.248;2022-08-03T00:16:55;22.50;99.90
2935;DHT22;2462;51.456;7.248;2022-08-03T00:19:22;22.40;99.90
2935;DHT22;2462;51.456;7.248;2022-08-03T00:21:47;22.40;99.90
2935;DHT22;2462;51.456;7.248;2022-08-03T00:24:13;22.40;99.90
2935;DHT22;2462;51.456;7.248;2022-08-03T00:26:38;22.40;99.90
2935;DHT22;2462;51.456;7.248;2022-08-03T00:29:04;22.40;99.90
2935;DHT22;2462;51.456;7.248;2022-08-03T00:31:29;22.30;99.90
2935;DHT22;2462;51.456;7.248;2022-08-03T00:33:55;22.30;99.90
2935;DHT22;2462;51.456;7.248;2022-08-03T00:36:20;22.30;99.90
2935;DHT22;2462;51.456;7.248;2022-08-03T00:38:46;22.20;99.90
2935;DHT22;2462;51.456;7.248;2022-08-03T00:41:11;22.30;99.90
2935;DHT22;2462;51.456;7.248;2022-08-03T00:43:37;22.20;99.90
2935;DHT22;2462;51.456;7.248;2022-08-03T00:46:02;22.20;99.90
2935;DHT22;2462;51.456;7.248;2022-08-03T00:48:28;22.20;99.90
2935;DHT22;2462;51.456;7.248;2022-08-03T00:50:53;22.10;99.90
2935;DHT22;2462;51.456;7.248;2022-08-03T00:53:19;22.10;99.90
2935;DHT22;2462;51.456;7.248;2022-08-03T00:55:45;22.10;99.90
2935;DHT22;2462;51.456;7.248;2022-08-03T00:58:11;22.10;99.90
2935;DHT22;2462;51.456;7.248;2022-08-03T01:00:38;22.10;99.90
2935;DHT22;2462;51.456;7.248;2022-08-03T01:03:09;22.10;99.90
2935;DHT22;2462;51.456;7.248;2022-08-03T01:05:57;22.10;99.90
2935;DHT22;2462;51.456;7.248;2022-08-03T01:11:14;22.00;99.90
2935;DHT22;2462;51.456;7.248;2022-08-03T01:13:52;22.10;99.90
2935;DHT22;2462;51.456;7.248;2022-08-03T01:16:36;22.00;99.90
2935;DHT22;2462;51.456;7.248;2022-08-03T01:19:12;22.00;99.90
2935;DHT22;2462;51.456;7.248;2022-08-03T01:21:51;22.00;99.90
2935;DHT22;2462;51.456;7.248;2022-08-03T01:32:14;22.00;99.90
2935;DHT22;2462;51.456;7.248;2022-08-03T01:34:46;22.00;99.90
2935;DHT22;2462;51.456;7.248;2022-08-03T01:37:15;22.00;99.90
2935;DHT22;2462;51.456;7.248;2022-08-03T01:39:43;21.90;99.90
2935;DHT22;2462;51.456;7.248;2022-08-03T01:42:10;21.90;99.90
2935;DHT22;2462;51.456;7.248;2022-08-03T01:44:40;21.90;99.90
2935;DHT22;2462;51.456;7.248;2022-08-03T01:47:07;21.90;99.90
2935;DHT22;2462;51.456;7.248;2022-08-03T01:49:38;21.90;99.90
2935;DHT22;2462;51.456;7.248;2022-08-03T01:52:05;21.90;99.90
2935;DHT22;2462;51.456;7.248;2022-08-03T01:54:39;21.90;99.90
2935;DHT22;2462;51.456;7.248;2022-08-03T01:57:07;21.80;99.90
2935;DHT22;2462;51.456;7.248;2022-08-03T01:59:34;21.90;99.90
2935;DHT22;2462;51.456;7.248;2022-08-03T02:02:02;21.80;99.90
2935;DHT22;2462;51.456;7.248;2022-08-03T02:04:29;21.80;99.90
2935;DHT22;2462;51.456;7.248;2022-08-03T02:06:55;21.80;99.90
2935;DHT22;2462;51.456;7.248;2022-08-03T02:09:22;21.80;99.90
2935;DHT22;2462;51.456;7.248;2022-08-03T02:11:50;21.80;99.90
2935;DHT22;2462;51.456;7.248;2022-08-03T02:14:19;21.80;99.90
2935;DHT22;2462;51.456;7.248;2022-08-03T02:16:45;21.80;99.90
2935;DHT22;2462;51.456;7.248;2022-08-03T02:19:12;21.80;99.90
2935;DHT22;2462;51.456;7.248;2022-08-03T02:21:40;21.80;99.90
2935;DHT22;2462;51.456;7.248;2022-08-03T02:24:08;21.70;99.90
2935;DHT22;2462;51.456;7.248;2022-08-03T02:26:35;21.70;99.90
2935;DHT22;2462;51.456;7.248;2022-08-03T02:29:08;21.70;99.90
2935;DHT22;2462;51.456;7.248;2022-08-03T02:31:36;21.70;99.90
2935;DHT22;2462;51.456;7.248;2022-08-03T02:34:07;21.70;99.90
2935;DHT22;2462;51.456;7.248;2022-08-03T02:36:37;21.70;99.90
2935;DHT22;2462;51.456;7.248;2022-08-03T02:39:04;21.70;99.90
2935;DHT22;2462;51.456;7.248;2022-08-03T02:41:36;21.70;99.90
2935;DHT22;2462;51.456;7.248;2022-08-03T02:44:07;21.60;99.90
2935;DHT22;2462;51.456;7.248;2022-08-03T02:46:36;21.60;99.90
2935;DHT22;2462;51.456;7.248;2022-08-03T02:49:03;21.60;99.90
2935;DHT22;2462;51.456;7.248;2022-08-03T02:51:32;21.60;99.90
2935;DHT22;2462;51.456;7.248;2022-08-03T02:54:01;21.60;99.90
2935;DHT22;2462;51.456;7.248;2022-08-03T02:56:27;21.60;99.90
2935;DHT22;2462;51.456;7.248;2022-08-03T02:58:55;21.50;99.90
2935;DHT22;2462;51.456;7.248;2022-08-03T03:01:24;21.50;99.90
2935;DHT22;2462;51.456;7.248;2022-08-03T03:03:51;21.50;99.90
2935;DHT22;2462;51.456;7.248;2022-08-03T03:06:18;21.50;99.90
2935;DHT22;2462;51.456;7.248;2022-08-03T03:08:45;21.50;99.90
2935;DHT22;2462;51.456;7.248;2022-08-03T03:11:13;21.40;99.90
2935;DHT22;2462;51.456;7.248;2022-08-03T03:13:42;21.40;99.90
2935;DHT22;2462;51.456;7.248;2022-08-03T03:16:09;21.40;99.90
2935;DHT22;2462;51.456;7.248;2022-08-03T03:18:37;21.40;99.90
2935;DHT22;2462;51.456;7.248;2022-08-03T03:21:03;21.40;99.90
2935;DHT22;2462;51.456;7.248;2022-08-03T03:23:30;21.40;99.90
2935;DHT22;2462;51.456;7.248;2022-08-03T03:25:56;21.30;99.90
2935;DHT22;2462;51.456;7.248;2022-08-03T03:28:23;21.30;99.90
2935;DHT22;2462;51.456;7.248;2022-08-03T03:30:49;21.30;99.90
2935;DHT22;2462;51.456;7.248;2022-08-03T03:33:16;21.30;99.90
2935;DHT22;2462;51.456;7.248;2022-08-03T03:35:42;21.30;99.90
2935;DHT22;2462;51.456;7.248;2022-08-03T03:38:10;21.30;99.90
2935;DHT22;2462;51.456;7.248;2022-08-03T03:40:39;21.20;99.90
2935;DHT22;2462;51.456;7.248;2022-08-03T03:43:10;21.20;99.90
2935;DHT22;2462;51.456;7.248;2022-08-03T03:45:40;21.20;99.90
2935;DHT22;2462;51.456;7.248;2022-08-03T03:48:07;21.20;99.90
2935;DHT22;2462;51.456;7.248;2022-08-03T03:50:34;21.10;99.90
2935;DHT22;2462;51.456;7.248;2022-08-03T03:53:02;21.20;99.90
2935;DHT22;2462;51.456;7.248;2022-08-03T03:55:27;21.10;99.90
2935;DHT22;2462;51.456;7.248;2022-08-03T03:57:54;21.10;99.90
2935;DHT22;2462;51.456;7.248;2022-08-03T04:00:20;21.10;99.90
2935;DHT22;2462;51.456;7.248;2022-08-03T04:02:46;21.10;99.90
2935;DHT22;2462;51.456;7.248;2022-08-03T04:05:13;21.00;99.90
2935;DHT22;2462;51.456;7.248;2022-08-03T04:08:06;21.00;99.90
2935;DHT22;2462;51.456;7.248;2022-08-03T04:11:26;21.00;99.90
2935;DHT22;2462;51.456;7.248;2022-08-03T04:14:22;21.00;99.90
2935;DHT22;2462;51.456;7.248;2022-08-03T04:16:52;21.00;99.90
2935;DHT22;2462;51.456;7.248;2022-08-03T04:19:26;21.00;99.90
2935;DHT22;2462;51.456;7.248;2022-08-03T04:21:58;20.90;99.90
2935;DHT22;2462;51.456;7.248;2022-08-03T04:24:29;21.00;99.90
2935;DHT22;2462;51.456;7.248;2022-08-03T04:26:55;20.90;99.90
2935;DHT22;2462;51.456;7.248;2022-08-03T04:29:22;20.90;99.90
2935;DHT22;2462;51.456;7.248;2022-08-03T04:31:50;20.90;99.90
2935;DHT22;2462;51.456;7.248;2022-08-03T04:34:18;20.90;99.90
2935;DHT22;2462;51.456;7.248;2022-08-03T04:36:47;20.90;99.90
2935;DHT22;2462;51.456;7.248;2022-08-03T04:39:18;20.90;99.90
2935;DHT22;2462;51.456;7.248;2022-08-03T04:41:48;20.90;99.90
2935;DHT22;2462;51.456;7.248;2022-08-03T04:44:16;20.90;99.90
2935;DHT22;2462;51.456;7.248;2022-08-03T04:46:43;20.90;99.90
2935;DHT22;2462;51.456;7.248;2022-08-03T04:49:10;20.90;99.90
2935;DHT22;2462;51.456;7.248;2022-08-03T04:51:37;20.90;99.90
2935;DHT22;2462;51.456;7.248;2022-08-03T04:54:04;20.90;99.90
2935;DHT22;2462;51.456;7.248;2022-08-03T04:56:31;20.90;99.90
2935;DHT22;2462;51.456;7.248;2022-08-03T04:58:58;20.90;99.90
2935;DHT22;2462;51.456;7.248;2022-08-03T05:01:24;20.90;99.90
2935;DHT22;2462;51.456;7.248;2022-08-03T05:03:49;20.90;99.90
2935;DHT22;2462;51.456;7.248;2022-08-03T05:06:15;20.90;99.90
2935;DHT22;2462;51.456;7.248;2022-08-03T05:08:41;20.90;99.90
2935;DHT22;2462;51.456;7.248;2022-08-03T05:11:06;20.90;99.90
2935;DHT22;2462;51.456;7.248;2022-08-03T05:13:33;20.90;99.90
2935;DHT22;2462;51.456;7.248;2022-08-03T05:15:58;20.90;99.90
2935;DHT22;2462;51.456;7.248;2022-08-03T05:18:24;20.90;99.90
2935;DHT22;2462;51.456;7.248;2022-08-03T05:20:49;20.90;99.90
2935;DHT22;2462;51.456;7.248;2022-08-03T05:23:15;21.00;99.90
2935;DHT22;2462;51.456;7.248;2022-08-03T05:25:41;20.90;99.90
2935;DHT22;2462;51.456;7.248;2022-08-03T05:28:06;21.00;99.90
2935;DHT22;2462;51.456;7.248;2022-08-03T05:30:32;21.00;99.90
2935;DHT22;2462;51.456;7.248;2022-08-03T05:32:57;21.00;99.90
2935;DHT22;2462;51.456;7.248;2022-08-03T05:35:24;21.00;99.90
2935;DHT22;2462;51.456;7.248;2022-08-03T05:37:50;21.00;99.90
2935;DHT22;2462;51.456;7.248;2022-08-03T05:40:16;21.00;99.90
2935;DHT22;2462;51.456;7.248;2022-08-03T05:42:41;21.10;99.90
2935;DHT22;2462;51.456;7.248;2022-08-03T05:45:07;21.10;99.90
2935;DHT22;2462;51.456;7.248;2022-08-03T05:47:45;21.10;99.90
2935;DHT22;2462;51.456;7.248;2022-08-03T05:50:12;21.10;99.90
2935;DHT22;2462;51.456;7.248;2022-08-03T05:52:39;21.20;99.90
2935;DHT22;2462;51.456;7.248;2022-08-03T05:55:08;21.20;99.90
2935;DHT22;2462;51.456;7.248;2022-08-03T05:57:34;21.30;99.90
2935;DHT22;2462;51.456;7.248;2022-08-03T06:00:03;21.20;99.90
2935;DHT22;2462;51.456;7.248;2022-08-03T06:02:29;21.30;99.90
2935;DHT22;2462;51.456;7.248;2022-08-03T06:04:55;21.30;99.90
2935;DHT22;2462;51.456;7.248;2022-08-03T06:07:21;21.30;99.90
2935;DHT22;2462;51.456;7.248;2022-08-03T06:09:46;21.30;99.90
2935;DHT22;2462;51.456;7.248;2022-08-03T06:12:12;21.30;99.90
2935;DHT22;2462;51.456;7.248;2022-08-03T06:14:37;21.40;99.90
2935;DHT22;2462;51.456;7.248;2022-08-03T06:17:03;21.40;99.90
2935;DHT22;2462;51.456;7.248;2022-08-03T06:19:28;21.40;99.90
2935;DHT22;2462;51.456;7.248;2022-08-03T06:21:54;21.50;99.90
2935;DHT22;2462;51.456;7.248;2022-08-03T06:24:19;21.50;99.90
2935;DHT22;2462;51.456;7.248;2022-08-03T06:26:45;21.50;99.90
2935;DHT22;2462;51.456;7.248;2022-08-03T06:29:10;21.60;99.90
2935;DHT22;2462;51.456;7.248;2022-08-03T06:31:36;21.60;99.90
2935;DHT22;2462;51.456;7.248;2022-08-03T06:34:03;21.60;99.90
2935;DHT22;2462;51.456;7.248;2022-08-03T06:36:29;21.60;99.90
2935;DHT22;2462;51.456;7.248;2022-08-03T06:38:59;21.60;99.90
2935;DHT22;2462;51.456;7.248;2022-08-03T06:41:25;21.70;99.90
2935;DHT22;2462;51.456;7.248;2022-08-03T06:43:51;21.70;99.90
2935;DHT22;2462;51.456;7.248;2022-08-03T06:46:17;21.70;99.90
2935;DHT22;2462;51.456;7.248;2022-08-03T06:48:42;21.80;99.90
2935;DHT22;2462;51.456;7.248;2022-08-03T06:51:08;21.80;99.90
2935;DHT22;2462;51.456;7.248;2022-08-03T06:53:34;21.80;99.90
2935;DHT22;2462;51.456;7.248;2022-08-03T06:56:00;21.80;99.90
2935;DHT22;2462;51.456;7.248;2022-08-03T06:58:25;21.90;99.90
2935;DHT22;2462;51.456;7.248;2022-08-03T07:00:51;21.90;99.90
2935;DHT22;2462;51.456;7.248;2022-08-03T07:03:17;22.00;99.90
2935;DHT22;2462;51.456;7.248;2022-08-03T07:05:43;22.00;99.90
2935;DHT22;2462;51.456;7.248;2022-08-03T07:08:11;22.00;99.90
2935;DHT22;2462;51.456;7.248;2022-08-03T07:10:36;22.10;99.90
2935;DHT22;2462;51.456;7.248;2022-08-03T07:13:02;22.10;99.90
2935;DHT22;2462;51.456;7.248;2022-08-03T07:15:28;22.10;99.90
2935;DHT22;2462;51.456;7.248;2022-08-03T07:17:53;22.20;99.90
2935;DHT22;2462;51.456;7.248;2022-08-03T07:20:19;22.20;99.90
2935;DHT22;2462;51.456;7.248;2022-08-03T07:22:45;22.30;99.90
2935;DHT22;2462;51.456;7.248;2022-08-03T07:25:10;22.30;99.90
2935;DHT22;2462;51.456;7.248;2022-08-03T07:27:36;22.30;99.90
2935;DHT22;2462;51.456;7.248;2022-08-03T07:30:05;22.40;99.90
2935;DHT22;2462;51.456;7.248;2022-08-03T07:32:31;22.40;99.90
2935;DHT22;2462;51.456;7.248;2022-08-03T07:34:57;22.50;99.90
2935;DHT22;2462;51.456;7.248;2022-08-03T07:37:22;22.50;99.90
2935;DHT22;2462;51.456;7.248;2022-08-03T07:39:48;22.60;99.90
2935;DHT22;2462;51.456;7.248;2022-08-03T07:42:14;22.60;99.90
2935;DHT22;2462;51.456;7.248;2022-08-03T07:44:39;22.60;99.90
2935;DHT22;2462;51.456;7.248;2022-08-03T07:47:05;22.70;99.90
2935;DHT22;2462;51.456;7.248;2022-08-03T07:49:31;22.70;99.90
2935;DHT22;2462;51.456;7.248;2022-08-03T07:51:57;22.70;99.90
2935;DHT22;2462;51.456;7.248;2022-08-03T07:54:41;22.80;99.90
2935;DHT22;2462;51.456;7.248;2022-08-03T07:57:06;22.80;99.90
2935;DHT22;2462;51.456;7.248;2022-08-03T07:59:32;22.90;99.90
2935;DHT22;2462;51.456;7.248;2022-08-03T08:01:59;22.90;99.90
2935;DHT22;2462;51.456;7.248;2022-08-03T08:04:25;23.00;99.90
2935;DHT22;2462;51.456;7.248;2022-08-03T08:06:50;23.00;99.90
2935;DHT22;2462;51.456;7.248;2022-08-03T08:09:16;23.10;99.90
2935;DHT22;2462;51.456;7.248;2022-08-03T08:11:42;23.10;99.90
2935;DHT22;2462;51.456;7.248;2022-08-03T08:14:07;23.10;99.90
2935;DHT22;2462;51.456;7.248;2022-08-03T08:16:34;23.10;99.90
2935;DHT22;2462;51.456;7.248;2022-08-03T08:18:59;23.20;99.90
2935;DHT22;2462;51.456;7.248;2022-08-03T08:21:26;23.20;99.90
2935;DHT22;2462;51.456;7.248;2022-08-03T08:23:51;23.30;99.90
2935;DHT22;2462;51.456;7.248;2022-08-03T08:26:17;23.30;99.90
2935;DHT22;2462;51.456;7.248;2022-08-03T08:28:42;23.40;99.90
2935;DHT22;2462;51.456;7.248;2022-08-03T08:31:08;23.40;99.90
2935;DHT22;2462;51.456;7.248;2022-08-03T08:33:33;23.40;99.90
2935;DHT22;2462;51.456;7.248;2022-08-03T08:36:00;23.50;99.90
2935;DHT22;2462;51.456;7.248;2022-08-03T08:38:25;23.50;99.90
2935;DHT22;2462;51.456;7.248;2022-08-03T08:40:54;23.50;99.90
2935;DHT22;2462;51.456;7.248;2022-08-03T08:43:20;23.60;99.90
2935;DHT22;2462;51.456;7.248;2022-08-03T08:45:49;23.60;99.90
2935;DHT22;2462;51.456;7.248;2022-08-03T08:48:22;23.70;99.90
2935;DHT22;2462;51.456;7.248;2022-08-03T08:50:52;23.70;99.90
2935;DHT22;2462;51.456;7.248;2022-08-03T08:53:18;23.80;99.90
2935;DHT22;2462;51.456;7.248;2022-08-03T08:55:45;23.80;99.90
2935;DHT22;2462;51.456;7.248;2022-08-03T08:58:15;23.90;99.90
2935;DHT22;2462;51.456;7.248;2022-08-03T09:00:43;23.90;99.90
2935;DHT22;2462;51.456;7.248;2022-08-03T09:03:10;24.00;99.90
2935;DHT22;2462;51.456;7.248;2022-08-03T09:05:36;24.10;99.90
2935;DHT22;2462;51.456;7.248;2022-08-03T09:08:04;24.10;99.90
2935;DHT22;2462;51.456;7.248;2022-08-03T09:10:30;24.20;99.90
2935;DHT22;2462;51.456;7.248;2022-08-03T09:12:56;24.20;99.90
2935;DHT22;2462;51.456;7.248;2022-08-03T09:15:26;24.20;99.90
2935;DHT22;2462;51.456;7.248;2022-08-03T09:17:54;24.30;99.90
2935;DHT22;2462;51.456;7.248;2022-08-03T09:20:22;24.30;99.90
2935;DHT22;2462;51.456;7.248;2022-08-03T09:25:32;24.40;99.90
2935;DHT22;2462;51.456;7.248;2022-08-03T09:28:08;24.50;99.90
2935;DHT22;2462;51.456;7.248;2022-08-03T09:30:34;24.50;99.90
2935;DHT22;2462;51.456;7.248;2022-08-03T09:33:05;24.50;99.90
2935;DHT22;2462;51.456;7.248;2022-08-03T09:35:31;24.50;99.90
2935;DHT22;2462;51.456;7.248;2022-08-03T09:38:29;24.60;99.90
2935;DHT22;2462;51.456;7.248;2022-08-03T09:40:55;24.60;99.90
2935;DHT22;2462;51.456;7.248;2022-08-03T09:43:21;24.70;99.90
2935;DHT22;2462;51.456;7.248;2022-08-03T09:45:50;24.70;99.90
2935;DHT22;2462;51.456;7.248;2022-08-03T09:48:25;24.80;99.90
2935;DHT22;2462;51.456;7.248;2022-08-03T09:50:53;24.80;99.90
2935;DHT22;2462;51.456;7.248;2022-08-03T09:53:20;24.80;99.90
2935;DHT22;2462;51.456;7.248;2022-08-03T09:55:56;24.90;99.90
2935;DHT22;2462;51.456;7.248;2022-08-03T09:58:23;24.90;99.90
2935;DHT22;2462;51.456;7.248;2022-08-03T10:00:56;25.00;99.90
2935;DHT22;2462;51.456;7.248;2022-08-03T10:03:22;25.00;99.90
2935;DHT22;2462;51.456;7.248;2022-08-03T10:05:48;25.10;99.90
2935;DHT22;2462;51.456;7.248;2022-08-03T10:08:15;25.10;99.90
2935;DHT22;2462;51.456;7.248;2022-08-03T10:10:46;25.20;99.90
2935;DHT22;2462;51.456;7.248;2022-08-03T10:13:16;25.20;99.90
2935;DHT22;2462;51.456;7.248;2022-08-03T10:15:43;25.30;99.90
2935;DHT22;2462;51.456;7.248;2022-08-03T10:18:08;25.30;99.90
2935;DHT22;2462;51.456;7.248;2022-08-03T10:20:37;25.30;99.90
2935;DHT22;2462;51.456;7.248;2022-08-03T10:23:07;25.40;99.90
2935;DHT22;2462;51.456;7.248;2022-08-03T10:25:33;25.40;99.90
2935;DHT22;2462;51.456;7.248;2022-08-03T10:28:01;25.50;99.90
2935;DHT22;2462;51.456;7.248;2022-08-03T10:30:30;25.50;99.90
2935;DHT22;2462;51.456;7.248;2022-08-03T10:33:03;25.50;99.90
2935;DHT22;2462;51.456;7.248;2022-08-03T10:35:31;25.50;99.90
2935;DHT22;2462;51.456;7.248;2022-08-03T10:38:01;25.60;99.90
2935;DHT22;2462;51.456;7.248;2022-08-03T10:40:29;25.60;99.90
2935;DHT22;2462;51.456;7.248;2022-08-03T10:42:58;25.60;99.90
2935;DHT22;2462;51.456;7.248;2022-08-03T10:45:27;25.70;99.90
2935;DHT22;2462;51.456;7.248;2022-08-03T10:47:54;25.70;99.90
2935;DHT22;2462;51.456;7.248;2022-08-03T10:50:23;25.70;99.90
2935;DHT22;2462;51.456;7.248;2022-08-03T10:52:57;25.70;99.90
2935;DHT22;2462;51.456;7.248;2022-08-03T10:55:36;25.80;99.90
2935;DHT22;2462;51.456;7.248;2022-08-03T11:01:05;25.90;99.90
2935;DHT22;2462;51.456;7.248;2022-08-03T11:03:32;26.00;99.90
2935;DHT22;2462;51.456;7.248;2022-08-03T11:06:15;26.00;99.90
2935;DHT22;2462;51.456;7.248;2022-08-03T11:08:44;26.00;99.90
2935;DHT22;2462;51.456;7.248;2022-08-03T11:16:30;26.10;99.90
2935;DHT22;2462;51.456;7.248;2022-08-03T11:19:01;26.10;99.90
2935;DHT22;2462;51.456;7.248;2022-08-03T11:21:59;26.20;99.90
2935;DHT22;2462;51.456;7.248;2022-08-03T11:27:15;26.20;99.90
2935;DHT22;2462;51.456;7.248;2022-08-03T11:30:05;26.30;99.90
2935;DHT22;2462;51.456;7.248;2022-08-03T11:43:06;26.50;99.90
2935;DHT22;2462;51.456;7.248;2022-08-03T11:45:33;26.60;99.90
2935;DHT22;2462;51.456;7.248;2022-08-03T11:48:12;26.60;99.90
2935;DHT22;2462;51.456;7.248;2022-08-03T11:50:38;26.60;99.90
2935;DHT22;2462;51.456;7.248;2022-08-03T11:53:06;26.70;99.90
2935;DHT22;2462;51.456;7.248;2022-08-03T11:55:31;26.70;99.90
2935;DHT22;2462;51.456;7.248;2022-08-03T11:58:00;26.80;99.90
2935;DHT22;2462;51.456;7.248;2022-08-03T12:00:30;26.70;99.90
2935;DHT22;2462;51.456;7.248;2022-08-03T12:03:00;26.80;99.90
2935;DHT22;2462;51.456;7.248;2022-08-03T12:05:46;26.80;99.90
2935;DHT22;2462;51.456;7.248;2022-08-03T12:08:14;26.90;99.90
2935;DHT22;2462;51.456;7.248;2022-08-03T12:10:49;26.90;99.90
2935;DHT22;2462;51.456;7.248;2022-08-03T12:13:15;26.90;99.90
2935;DHT22;2462;51.456;7.248;2022-08-03T12:15:41;26.90;99.90
2935;DHT22;2462;51.456;7.248;2022-08-03T12:18:15;27.00;99.90
2935;DHT22;2462;51.456;7.248;2022-08-03T12:20:41;26.90;99.90
2935;DHT22;2462;51.456;7.248;2022-08-03T12:23:07;27.00;99.90
2935;DHT22;2462;51.456;7.248;2022-08-03T12:25:34;27.00;99.90
2935;DHT22;2462;51.456;7.248;2022-08-03T12:28:16;27.10;99.90
2935;DHT22;2462;51.456;7.248;2022-08-03T12:30:46;27.10;99.90
2935;DHT22;2462;51.456;7.248;2022-08-03T12:33:20;27.20;99.90
2935;DHT22;2462;51.456;7.248;2022-08-03T12:35:48;27.20;99.90
2935;DHT22;2462;51.456;7.248;2022-08-03T12:38:19;27.20;99.90
2935;DHT22;2462;51.456;7.248;2022-08-03T12:40:55;27.30;99.90
2935;DHT22;2462;51.456;7.248;2022-08-03T12:43:21;27.30;99.90
2935;DHT22;2462;51.456;7.248;2022-08-03T12:45:46;27.30;99.90
2935;DHT22;2462;51.456;7.248;2022-08-03T12:48:12;27.40;99.90
2935;DHT22;2462;51.456;7.248;2022-08-03T12:50:38;27.40;99.90
2935;DHT22;2462;51.456;7.248;2022-08-03T12:53:06;27.50;99.90
2935;DHT22;2462;51.456;7.248;2022-08-03T12:55:33;27.50;99.90
2935;DHT22;2462;51.456;7.248;2022-08-03T12:58:00;27.50;99.90
2935;DHT22;2462;51.456;7.248;2022-08-03T13:00:25;27.60;99.90
2935;DHT22;2462;51.456;7.248;2022-08-03T13:03:06;27.60;99.90
2935;DHT22;2462;51.456;7.248;2022-08-03T13:05:42;27.60;99.90
2935;DHT22;2462;51.456;7.248;2022-08-03T13:08:22;27.60;99.90
2935;DHT22;2462;51.456;7.248;2022-08-03T13:10:48;27.60;99.90
2935;DHT22;2462;51.456;7.248;2022-08-03T13:13:14;27.70;99.90
2935;DHT22;2462;51.456;7.248;2022-08-03T13:15:40;27.70;99.90
2935;DHT22;2462;51.456;7.248;2022-08-03T13:18:06;27.80;99.90
2935;DHT22;2462;51.456;7.248;2022-08-03T13:20:31;27.80;99.90
2935;DHT22;2462;51.456;7.248;2022-08-03T13:22:58;27.90;99.90
2935;DHT22;2462;51.456;7.248;2022-08-03T13:25:23;27.90;99.90
2935;DHT22;2462;51.456;7.248;2022-08-03T13:27:49;27.90;99.90
2935;DHT22;2462;51.456;7.248;2022-08-03T13:30:15;27.90;99.90
2935;DHT22;2462;51.456;7.248;2022-08-03T13:32:41;28.00;99.90
2935;DHT22;2462;51.456;7.248;2022-08-03T13:35:07;28.00;99.90
2935;DHT22;2462;51.456;7.248;2022-08-03T13:37:34;28.10;99.90
2935;DHT22;2462;51.456;7.248;2022-08-03T13:40:00;28.10;99.90
2935;DHT22;2462;51.456;7.248;2022-08-03T13:42:27;28.20;99.90
2935;DHT22;2462;51.456;7.248;2022-08-03T13:44:53;28.20;99.90
2935;DHT22;2462;51.456;7.248;2022-08-03T13:47:19;28.30;99.90
2935;DHT22;2462;51.456;7.248;2022-08-03T13:49:44;28.30;99.90
2935;DHT22;2462;51.456;7.248;2022-08-03T13:52:10;28.30;99.90
2935;DHT22;2462;51.456;7.248;2022-08-03T13:54:35;28.40;99.90
2935;DHT22;2462;51.456;7.248;2022-08-03T13:57:01;28.40;99.90
2935;DHT22;2462;51.456;7.248;2022-08-03T13:59:26;28.50;99.90
2935;DHT22;2462;51.456;7.248;2022-08-03T14:01:52;28.50;99.90
2935;DHT22;2462;51.456;7.248;2022-08-03T14:04:18;28.60;99.90
2935;DHT22;2462;51.456;7.248;2022-08-03T14:06:44;28.70;99.90
2935;DHT22;2462;51.456;7.248;2022-08-03T14:09:11;28.70;99.90
2935;DHT22;2462;51.456;7.248;2022-08-03T14:11:38;28.80;99.90
2935;DHT22;2462;51.456;7.248;2022-08-03T14:14:03;28.80;99.90
2935;DHT22;2462;51.456;7.248;2022-08-03T14:16:29;28.80;99.90
2935;DHT22;2462;51.456;7.248;2022-08-03T14:18:54;28.80;99.90
2935;DHT22;2462;51.456;7.248;2022-08-03T14:21:20;28.90;99.90
2935;DHT22;2462;51.456;7.248;2022-08-03T14:23:45;29.00;99.90
2935;DHT22;2462;51.456;7.248;2022-08-03T14:26:11;29.10;99.90
2935;DHT22;2462;51.456;7.248;2022-08-03T14:28:38;29.20;99.90
2935;DHT22;2462;51.456;7.248;2022-08-03T14:31:04;29.20;99.90
2935;DHT22;2462;51.456;7.248;2022-08-03T14:33:30;29.20;99.90
2935;DHT22;2462;51.456;7.248;2022-08-03T14:35:55;29.20;99.90
2935;DHT22;2462;51.456;7.248;2022-08-03T14:38:21;29.20;99.90
2935;DHT22;2462;51.456;7.248;2022-08-03T14:40:47;29.20;99.90
2935;DHT22;2462;51.456;7.248;2022-08-03T14:43:13;29.20;99.90
2935;DHT22;2462;51.456;7.248;2022-08-03T14:45:39;29.20;99.90
2935;DHT22;2462;51.456;7.248;2022-08-03T14:48:08;29.30;99.90
2935;DHT22;2462;51.456;7.248;2022-08-03T14:50:34;29.40;99.90
2935;DHT22;2462;51.456;7.248;2022-08-03T14:52:59;29.40;99.90
2935;DHT22;2462;51.456;7.248;2022-08-03T14:55:25;29.40;99.90
2935;DHT22;2462;51.456;7.248;2022-08-03T14:57:50;29.40;99.90
2935;DHT22;2462;51.456;7.248;2022-08-03T15:00:16;29.40;99.90
2935;DHT22;2462;51.456;7.248;2022-08-03T15:02:42;29.40;99.90
2935;DHT22;2462;51.456;7.248;2022-08-03T15:05:07;29.40;99.90
2935;DHT22;2462;51.456;7.248;2022-08-03T15:07:34;29.40;99.90
2935;DHT22;2462;51.456;7.248;2022-08-03T15:10:00;29.40;99.90
2935;DHT22;2462;51.456;7.248;2022-08-03T15:12:26;29.40;99.90
2935;DHT22;2462;51.456;7.248;2022-08-03T15:14:51;29.30;99.90
2935;DHT22;2462;51.456;7.248;2022-08-03T15:17:17;29.30;99.90
2935;DHT22;2462;51.456;7.248;2022-08-03T15:19:42;29.20;99.90
2935;DHT22;2462;51.456;7.248;2022-08-03T15:22:08;29.20;99.90
2935;DHT22;2462;51.456;7.248;2022-08-03T15:24:33;29.20;99.90
2935;DHT22;2462;51.456;7.248;2022-08-03T15:26:59;29.20;99.90
2935;DHT22;2462;51.456;7.248;2022-08-03T15:29:25;29.20;99.90
2935;DHT22;2462;51.456;7.248;2022-08-03T15:31:50;29.20;99.90
2935;DHT22;2462;51.456;7.248;2022-08-03T15:34:16;29.20;99.90
2935;DHT22;2462;51.456;7.248;2022-08-03T15:36:42;29.20;99.90
2935;DHT22;2462;51.456;7.248;2022-08-03T15:39:08;29.20;99.90
2935;DHT22;2462;51.456;7.248;2022-08-03T15:41:33;29.20;99.90
2935;DHT22;2462;51.456;7.248;2022-08-03T15:44:01;29.20;99.90
2935;DHT22;2462;51.456;7.248;2022-08-03T15:46:26;29.20;99.90
2935;DHT22;2462;51.456;7.248;2022-08-03T15:48:52;29.20;99.90
2935;DHT22;2462;51.456;7.248;2022-08-03T15:51:17;29.20;99.90
2935;DHT22;2462;51.456;7.248;2022-08-03T15:53:43;29.20;99.90
2935;DHT22;2462;51.456;7.248;2022-08-03T15:56:08;29.20;99.90
2935;DHT22;2462;51.456;7.248;2022-08-03T15:58:36;29.20;99.90
2935;DHT22;2462;51.456;7.248;2022-08-03T16:01:03;29.20;99.90
2935;DHT22;2462;51.456;7.248;2022-08-03T16:03:29;29.20;99.90
2935;DHT22;2462;51.456;7.248;2022-08-03T16:06:03;29.10;99.90
2935;DHT22;2462;51.456;7.248;2022-08-03T16:08:29;29.10;99.90
2935;DHT22;2462;51.456;7.248;2022-08-03T16:10:55;29.10;99.90
2935;DHT22;2462;51.456;7.248;2022-08-03T16:13:21;29.10;99.90
2935;DHT22;2462;51.456;7.248;2022-08-03T16:15:49;29.00;99.90
2935;DHT22;2462;51.456;7.248;2022-08-03T16:18:17;29.00;99.90
2935;DHT22;2462;51.456;7.248;2022-08-03T16:20:43;29.00;99.90
2935;DHT22;2462;51.456;7.248;2022-08-03T16:23:10;29.00;99.90
2935;DHT22;2462;51.456;7.248;2022-08-03T16:25:36;29.00;99.50
2935;DHT22;2462;51.456;7.248;2022-08-03T16:28:02;28.90;99.80
2935;DHT22;2462;51.456;7.248;2022-08-03T16:30:27;28.90;99.70
2935;DHT22;2462;51.456;7.248;2022-08-03T16:32:53;28.90;99.50
2935;DHT22;2462;51.456;7.248;2022-08-03T16:35:19;28.90;99.60
2935;DHT22;2462;51.456;7.248;2022-08-03T16:37:44;28.90;99.60
2935;DHT22;2462;51.456;7.248;2022-08-03T16:40:11;28.80;99.10
2935;DHT22;2462;51.456;7.248;2022-08-03T16:42:38;28.80;99.00